sensor_id;sensor_type;location;lat;lon;timestamp;P1;durP1;ratioP1;P2;durP2;ratioP2
7707;SDS011;3896;48.758;8.888;2022-08-01T00:01:51;3.37;;;2.30;;
7707;SDS011;3896;48.758;8.888;2022-08-01T00:04:17;2.17;;;2.07;;
7707;SDS011;3896;48.758;8.888;2022-08-01T00:06:44;2.20;;;2.10;;
7707;SDS011;3896;48.758;8.888;2022-08-01T00:09:09;2.10;;;1.60;;
7707;SDS011;3896;48.758;8.888;2022-08-01T00:11:35;2.73;;;2.30;;
7707;SDS011;3896;48.758;8.888;2022-08-01T00:14:01;3.57;;;2.57;;
7707;SDS011;3896;48.758;8.888;2022-08-01T00:16:27;2.50;;;2.17;;
7707;SDS011;3896;48.758;8.888;2022-08-01T00:18:52;2.27;;;2.07;;
7707;SDS011;3896;48.758;8.888;2022-08-01T00:21:18;2.20;;;2.00;;
7707;SDS011;3896;48.758;8.888;2022-08-01T00:23:44;2.27;;;2.07;;
7707;SDS011;3896;48.758;8.888;2022-08-01T00:26:10;2.27;;;2.17;;
7707;SDS011;3896;48.758;8.888;2022-08-01T00:28:37;2.70;;;2.50;;
7707;SDS011;3896;48.758;8.888;2022-08-01T00:31:03;2.23;;;2.13;;
7707;SDS011;3896;48.758;8.888;2022-08-01T00:33:29;2.67;;;2.43;;
7707;SDS011;3896;48.758;8.888;2022-08-01T00:35:54;2.20;;;2.10;;
7707;SDS011;3896;48.758;8.888;2022-08-01T00:38:20;3.47;;;2.20;;
7707;SDS011;3896;48.758;8.888;2022-08-01T00:40:46;5.27;;;2.73;;
7707;SDS011;3896;48.758;8.888;2022-08-01T00:43:12;2.63;;;2.40;;
7707;SDS011;3896;48.758;8.888;2022-08-01T00:45:38;2.53;;;2.33;;
7707;SDS011;3896;48.758;8.888;2022-08-01T00:48:04;2.70;;;2.50;;
7707;SDS011;3896;48.758;8.888;2022-08-01T00:50:30;2.30;;;2.10;;
7707;SDS011;3896;48.758;8.888;2022-08-01T00:52:55;2.40;;;2.20;;
7707;SDS011;3896;48.758;8.888;2022-08-01T00:55:23;2.50;;;2.33;;
7707;SDS011;3896;48.758;8.888;2022-08-01T00:57:49;3.23;;;2.93;;
7707;SDS011;3896;48.758;8.888;2022-08-01T01:00:15;2.73;;;2.40;;
7707;SDS011;3896;48.758;8.888;2022-08-01T01:02:40;2.10;;;2.00;;
7707;SDS011;3896;48.758;8.888;2022-08-01T01:05:06;2.60;;;2.40;;
7707;SDS011;3896;48.758;8.888;2022-08-01T01:12:42;3.27;;;2.97;;
7707;SDS011;3896;48.758;8.888;2022-08-01T01:18:34;2.73;;;2.53;;
7707;SDS011;3896;48.758;8.888;2022-08-01T01:21:08;2.80;;;2.20;;
7707;SDS011;3896;48.758;8.888;2022-08-01T01:29:16;3.00;;;2.80;;
7707;SDS011;3896;48.758;8.888;2022-08-01T01:32:25;2.37;;;2.17;;
7707;SDS011;3896;48.758;8.888;2022-08-01T01:34:54;3.10;;;2.90;;
7707;SDS011;3896;48.758;8.888;2022-08-01T01:37:21;3.37;;;3.00;;
7707;SDS011;3896;48.758;8.888;2022-08-01T01:39:50;3.23;;;2.67;;
7707;SDS011;3896;48.758;8.888;2022-08-01T01:42:17;2.50;;;2.37;;
7707;SDS011;3896;48.758;8.888;2022-08-01T01:44:47;2.67;;;2.47;;
7707;SDS011;3896;48.758;8.888;2022-08-01T01:47:15;2.90;;;2.30;;
7707;SDS011;3896;48.758;8.888;2022-08-01T01:49:41;3.30;;;3.07;;
7707;SDS011;3896;48.758;8.888;2022-08-01T01:52:10;2.40;;;2.20;;
7707;SDS011;3896;48.758;8.888;2022-08-01T01:54:42;2.80;;;2.37;;
7707;SDS011;3896;48.758;8.888;2022-08-01T01:57:14;2.87;;;2.67;;
7707;SDS011;3896;48.758;8.888;2022-08-01T01:59:41;2.70;;;2.50;;
7707;SDS011;3896;48.758;8.888;2022-08-01T02:02:09;2.93;;;2.57;;
7707;SDS011;3896;48.758;8.888;2022-08-01T02:04:36;2.50;;;2.33;;
7707;SDS011;3896;48.758;8.888;2022-08-01T02:07:05;3.23;;;2.53;;
7707;SDS011;3896;48.758;8.888;2022-08-01T02:09:33;3.10;;;2.90;;
7707;SDS011;3896;48.758;8.888;2022-08-01T02:12:02;3.67;;;2.87;;
7707;SDS011;3896;48.758;8.888;2022-08-01T02:14:30;3.27;;;2.97;;
7707;SDS011;3896;48.758;8.888;2022-08-01T02:16:59;3.10;;;2.27;;
7707;SDS011;3896;48.758;8.888;2022-08-01T02:19:28;4.10;;;2.83;;
7707;SDS011;3896;48.758;8.888;2022-08-01T02:21:55;4.47;;;2.70;;
7707;SDS011;3896;48.758;8.888;2022-08-01T02:24:30;3.60;;;2.83;;
7707;SDS011;3896;48.758;8.888;2022-08-01T02:27:01;3.03;;;2.83;;
7707;SDS011;3896;48.758;8.888;2022-08-01T02:29:40;3.00;;;2.30;;
7707;SDS011;3896;48.758;8.888;2022-08-01T02:32:14;3.00;;;2.40;;
7707;SDS011;3896;48.758;8.888;2022-08-01T02:34:49;2.70;;;2.50;;
7707;SDS011;3896;48.758;8.888;2022-08-01T02:37:18;2.40;;;2.30;;
7707;SDS011;3896;48.758;8.888;2022-08-01T02:39:46;2.97;;;2.77;;
7707;SDS011;3896;48.758;8.888;2022-08-01T02:42:15;2.87;;;2.67;;
7707;SDS011;3896;48.758;8.888;2022-08-01T02:44:43;3.00;;;2.80;;
7707;SDS011;3896;48.758;8.888;2022-08-01T02:47:11;5.17;;;2.47;;
7707;SDS011;3896;48.758;8.888;2022-08-01T02:49:39;2.97;;;2.67;;
7707;SDS011;3896;48.758;8.888;2022-08-01T02:52:10;2.53;;;2.33;;
7707;SDS011;3896;48.758;8.888;2022-08-01T02:54:38;3.00;;;2.77;;
7707;SDS011;3896;48.758;8.888;2022-08-01T02:57:05;3.20;;;2.77;;
7707;SDS011;3896;48.758;8.888;2022-08-01T02:59:33;3.57;;;3.27;;
7707;SDS011;3896;48.758;8.888;2022-08-01T03:02:02;2.90;;;2.70;;
7707;SDS011;3896;48.758;8.888;2022-08-01T03:04:30;4.23;;;2.80;;
7707;SDS011;3896;48.758;8.888;2022-08-01T03:06:58;4.67;;;3.47;;
7707;SDS011;3896;48.758;8.888;2022-08-01T03:09:27;3.13;;;2.93;;
7707;SDS011;3896;48.758;8.888;2022-08-01T03:11:56;3.53;;;3.10;;
7707;SDS011;3896;48.758;8.888;2022-08-01T03:14:25;3.23;;;2.93;;
7707;SDS011;3896;48.758;8.888;2022-08-01T03:16:52;2.90;;;2.70;;
7707;SDS011;3896;48.758;8.888;2022-08-01T03:19:20;3.20;;;2.90;;
7707;SDS011;3896;48.758;8.888;2022-08-01T03:21:49;2.77;;;2.57;;
7707;SDS011;3896;48.758;8.888;2022-08-01T03:24:15;3.00;;;2.80;;
7707;SDS011;3896;48.758;8.888;2022-08-01T03:26:43;2.90;;;2.70;;
7707;SDS011;3896;48.758;8.888;2022-08-01T03:29:14;3.67;;;2.80;;
7707;SDS011;3896;48.758;8.888;2022-08-01T03:31:43;5.33;;;3.07;;
7707;SDS011;3896;48.758;8.888;2022-08-01T03:34:11;4.43;;;2.77;;
7707;SDS011;3896;48.758;8.888;2022-08-01T03:36:39;3.07;;;2.87;;
7707;SDS011;3896;48.758;8.888;2022-08-01T03:39:29;3.37;;;2.50;;
7707;SDS011;3896;48.758;8.888;2022-08-01T03:41:59;3.20;;;2.90;;
7707;SDS011;3896;48.758;8.888;2022-08-01T03:44:31;2.73;;;2.50;;
7707;SDS011;3896;48.758;8.888;2022-08-01T03:47:00;3.90;;;2.70;;
7707;SDS011;3896;48.758;8.888;2022-08-01T03:49:30;5.73;;;3.27;;
7707;SDS011;3896;48.758;8.888;2022-08-01T03:51:58;3.73;;;3.00;;
7707;SDS011;3896;48.758;8.888;2022-08-01T03:54:28;3.23;;;2.93;;
7707;SDS011;3896;48.758;8.888;2022-08-01T03:56:58;2.57;;;2.37;;
7707;SDS011;3896;48.758;8.888;2022-08-01T03:59:25;2.50;;;2.23;;
7707;SDS011;3896;48.758;8.888;2022-08-01T04:01:51;3.10;;;2.80;;
7707;SDS011;3896;48.758;8.888;2022-08-01T04:04:18;2.93;;;2.70;;
7707;SDS011;3896;48.758;8.888;2022-08-01T04:06:44;2.90;;;2.70;;
7707;SDS011;3896;48.758;8.888;2022-08-01T04:09:10;3.20;;;2.90;;
7707;SDS011;3896;48.758;8.888;2022-08-01T04:11:39;3.73;;;2.50;;
7707;SDS011;3896;48.758;8.888;2022-08-01T04:14:06;4.13;;;2.77;;
7707;SDS011;3896;48.758;8.888;2022-08-01T04:16:31;2.50;;;2.30;;
7707;SDS011;3896;48.758;8.888;2022-08-01T04:18:57;3.00;;;2.73;;
7707;SDS011;3896;48.758;8.888;2022-08-01T04:21:23;3.73;;;3.00;;
7707;SDS011;3896;48.758;8.888;2022-08-01T04:23:54;4.03;;;2.57;;
7707;SDS011;3896;48.758;8.888;2022-08-01T04:26:24;4.90;;;3.63;;
7707;SDS011;3896;48.758;8.888;2022-08-01T04:28:52;3.57;;;2.70;;
7707;SDS011;3896;48.758;8.888;2022-08-01T04:31:20;3.87;;;3.07;;
7707;SDS011;3896;48.758;8.888;2022-08-01T04:33:48;3.00;;;2.80;;
7707;SDS011;3896;48.758;8.888;2022-08-01T04:36:16;2.53;;;2.33;;
7707;SDS011;3896;48.758;8.888;2022-08-01T04:38:45;3.13;;;2.67;;
7707;SDS011;3896;48.758;8.888;2022-08-01T04:41:13;3.70;;;2.70;;
7707;SDS011;3896;48.758;8.888;2022-08-01T04:43:40;4.53;;;2.70;;
7707;SDS011;3896;48.758;8.888;2022-08-01T04:46:07;3.47;;;2.90;;
7707;SDS011;3896;48.758;8.888;2022-08-01T04:48:38;4.30;;;2.53;;
7707;SDS011;3896;48.758;8.888;2022-08-01T04:51:04;3.03;;;2.73;;
7707;SDS011;3896;48.758;8.888;2022-08-01T04:53:37;3.10;;;2.80;;
7707;SDS011;3896;48.758;8.888;2022-08-01T04:56:03;2.67;;;2.47;;
7707;SDS011;3896;48.758;8.888;2022-08-01T04:58:29;2.80;;;2.60;;
7707;SDS011;3896;48.758;8.888;2022-08-01T05:00:54;4.20;;;2.50;;
7707;SDS011;3896;48.758;8.888;2022-08-01T05:03:20;3.53;;;2.57;;
7707;SDS011;3896;48.758;8.888;2022-08-01T05:08:15;2.70;;;2.50;;
7707;SDS011;3896;48.758;8.888;2022-08-01T05:10:41;2.70;;;2.50;;
7707;SDS011;3896;48.758;8.888;2022-08-01T05:13:07;3.30;;;3.00;;
7707;SDS011;3896;48.758;8.888;2022-08-01T05:15:36;4.83;;;3.00;;
7707;SDS011;3896;48.758;8.888;2022-08-01T05:18:02;5.53;;;2.83;;
7707;SDS011;3896;48.758;8.888;2022-08-01T05:20:28;4.20;;;3.30;;
7707;SDS011;3896;48.758;8.888;2022-08-01T05:22:54;2.67;;;2.47;;
7707;SDS011;3896;48.758;8.888;2022-08-01T05:25:19;2.77;;;2.60;;
7707;SDS011;3896;48.758;8.888;2022-08-01T05:27:45;5.57;;;3.17;;
7707;SDS011;3896;48.758;8.888;2022-08-01T05:30:11;3.57;;;3.30;;
7707;SDS011;3896;48.758;8.888;2022-08-01T05:32:37;4.73;;;3.27;;
7707;SDS011;3896;48.758;8.888;2022-08-01T05:35:03;4.53;;;3.00;;
7707;SDS011;3896;48.758;8.888;2022-08-01T05:37:29;3.07;;;2.87;;
7707;SDS011;3896;48.758;8.888;2022-08-01T05:39:55;3.23;;;2.93;;
7707;SDS011;3896;48.758;8.888;2022-08-01T05:42:21;3.33;;;2.97;;
7707;SDS011;3896;48.758;8.888;2022-08-01T05:44:46;2.90;;;2.70;;
7707;SDS011;3896;48.758;8.888;2022-08-01T05:47:12;3.00;;;2.70;;
7707;SDS011;3896;48.758;8.888;2022-08-01T05:49:38;3.13;;;2.93;;
7707;SDS011;3896;48.758;8.888;2022-08-01T05:52:04;2.80;;;2.60;;
7707;SDS011;3896;48.758;8.888;2022-08-01T05:54:30;3.50;;;3.20;;
7707;SDS011;3896;48.758;8.888;2022-08-01T05:56:56;3.13;;;2.87;;
7707;SDS011;3896;48.758;8.888;2022-08-01T05:59:24;3.10;;;2.90;;
7707;SDS011;3896;48.758;8.888;2022-08-01T06:01:50;3.10;;;2.63;;
7707;SDS011;3896;48.758;8.888;2022-08-01T06:04:16;3.37;;;2.77;;
7707;SDS011;3896;48.758;8.888;2022-08-01T06:06:42;3.03;;;2.47;;
7707;SDS011;3896;48.758;8.888;2022-08-01T06:09:07;2.77;;;2.40;;
7707;SDS011;3896;48.758;8.888;2022-08-01T06:11:33;3.33;;;2.50;;
7707;SDS011;3896;48.758;8.888;2022-08-01T06:13:58;2.40;;;2.30;;
7707;SDS011;3896;48.758;8.888;2022-08-01T06:16:24;4.03;;;2.73;;
7707;SDS011;3896;48.758;8.888;2022-08-01T06:18:50;2.93;;;2.73;;
7707;SDS011;3896;48.758;8.888;2022-08-01T06:21:15;3.37;;;3.03;;
7707;SDS011;3896;48.758;8.888;2022-08-01T06:23:41;3.03;;;2.80;;
7707;SDS011;3896;48.758;8.888;2022-08-01T06:26:07;2.73;;;2.53;;
7707;SDS011;3896;48.758;8.888;2022-08-01T06:28:33;2.37;;;2.17;;
7707;SDS011;3896;48.758;8.888;2022-08-01T06:30:58;2.80;;;2.60;;
7707;SDS011;3896;48.758;8.888;2022-08-01T06:33:24;2.10;;;2.00;;
7707;SDS011;3896;48.758;8.888;2022-08-01T06:35:50;2.30;;;2.20;;
7707;SDS011;3896;48.758;8.888;2022-08-01T06:38:16;2.07;;;1.80;;
7707;SDS011;3896;48.758;8.888;2022-08-01T06:40:41;3.00;;;2.20;;
7707;SDS011;3896;48.758;8.888;2022-08-01T06:43:07;2.83;;;2.13;;
7707;SDS011;3896;48.758;8.888;2022-08-01T06:45:33;2.27;;;1.90;;
7707;SDS011;3896;48.758;8.888;2022-08-01T06:47:59;2.00;;;1.90;;
7707;SDS011;3896;48.758;8.888;2022-08-01T06:50:24;2.10;;;1.90;;
7707;SDS011;3896;48.758;8.888;2022-08-01T06:52:50;2.03;;;1.83;;
7707;SDS011;3896;48.758;8.888;2022-08-01T06:55:16;2.40;;;1.90;;
7707;SDS011;3896;48.758;8.888;2022-08-01T06:57:45;2.30;;;2.10;;
7707;SDS011;3896;48.758;8.888;2022-08-01T07:00:15;1.83;;;1.73;;
7707;SDS011;3896;48.758;8.888;2022-08-01T07:02:43;2.23;;;2.03;;
7707;SDS011;3896;48.758;8.888;2022-08-01T07:05:10;2.20;;;2.00;;
7707;SDS011;3896;48.758;8.888;2022-08-01T07:07:35;2.87;;;2.00;;
7707;SDS011;3896;48.758;8.888;2022-08-01T07:10:01;2.30;;;2.20;;
7707;SDS011;3896;48.758;8.888;2022-08-01T07:12:28;2.00;;;1.90;;
7707;SDS011;3896;48.758;8.888;2022-08-01T07:14:53;2.17;;;2.07;;
7707;SDS011;3896;48.758;8.888;2022-08-01T07:17:19;2.67;;;1.80;;
7707;SDS011;3896;48.758;8.888;2022-08-01T07:19:45;2.47;;;2.37;;
7707;SDS011;3896;48.758;8.888;2022-08-01T07:22:11;2.47;;;2.27;;
7707;SDS011;3896;48.758;8.888;2022-08-01T07:24:38;2.10;;;2.00;;
7707;SDS011;3896;48.758;8.888;2022-08-01T07:27:04;1.87;;;1.77;;
7707;SDS011;3896;48.758;8.888;2022-08-01T07:29:30;2.10;;;1.90;;
7707;SDS011;3896;48.758;8.888;2022-08-01T07:31:56;2.00;;;1.80;;
7707;SDS011;3896;48.758;8.888;2022-08-01T07:34:22;2.23;;;2.03;;
7707;SDS011;3896;48.758;8.888;2022-08-01T07:36:49;2.00;;;1.90;;
7707;SDS011;3896;48.758;8.888;2022-08-01T07:39:15;2.70;;;2.13;;
7707;SDS011;3896;48.758;8.888;2022-08-01T07:41:41;2.13;;;2.00;;
7707;SDS011;3896;48.758;8.888;2022-08-01T07:44:07;1.73;;;1.63;;
7707;SDS011;3896;48.758;8.888;2022-08-01T07:46:32;2.50;;;2.30;;
7707;SDS011;3896;48.758;8.888;2022-08-01T07:48:58;2.80;;;2.40;;
7707;SDS011;3896;48.758;8.888;2022-08-01T07:51:23;4.37;;;2.03;;
7707;SDS011;3896;48.758;8.888;2022-08-01T07:53:49;2.00;;;1.83;;
7707;SDS011;3896;48.758;8.888;2022-08-01T07:56:14;2.40;;;2.20;;
7707;SDS011;3896;48.758;8.888;2022-08-01T07:58:40;1.90;;;1.80;;
7707;SDS011;3896;48.758;8.888;2022-08-01T08:01:06;1.90;;;1.80;;
7707;SDS011;3896;48.758;8.888;2022-08-01T08:03:31;3.87;;;2.10;;
7707;SDS011;3896;48.758;8.888;2022-08-01T08:05:57;4.13;;;2.13;;
7707;SDS011;3896;48.758;8.888;2022-08-01T08:08:22;2.40;;;2.20;;
7707;SDS011;3896;48.758;8.888;2022-08-01T08:10:48;2.70;;;2.50;;
7707;SDS011;3896;48.758;8.888;2022-08-01T08:13:14;2.50;;;2.27;;
7707;SDS011;3896;48.758;8.888;2022-08-01T08:15:40;2.83;;;2.63;;
7707;SDS011;3896;48.758;8.888;2022-08-01T08:18:06;3.20;;;2.90;;
7707;SDS011;3896;48.758;8.888;2022-08-01T08:20:31;2.60;;;2.40;;
7707;SDS011;3896;48.758;8.888;2022-08-01T08:22:57;2.53;;;2.33;;
7707;SDS011;3896;48.758;8.888;2022-08-01T08:25:23;3.80;;;2.60;;
7707;SDS011;3896;48.758;8.888;2022-08-01T08:27:50;2.57;;;2.37;;
7707;SDS011;3896;48.758;8.888;2022-08-01T08:30:16;2.33;;;2.13;;
7707;SDS011;3896;48.758;8.888;2022-08-01T08:32:42;2.53;;;2.33;;
7707;SDS011;3896;48.758;8.888;2022-08-01T08:35:08;2.20;;;2.00;;
7707;SDS011;3896;48.758;8.888;2022-08-01T08:37:34;4.03;;;2.43;;
7707;SDS011;3896;48.758;8.888;2022-08-01T08:40:01;2.07;;;1.97;;
7707;SDS011;3896;48.758;8.888;2022-08-01T08:42:30;2.40;;;2.27;;
7707;SDS011;3896;48.758;8.888;2022-08-01T08:44:56;2.70;;;2.50;;
7707;SDS011;3896;48.758;8.888;2022-08-01T08:47:22;2.57;;;2.37;;
7707;SDS011;3896;48.758;8.888;2022-08-01T08:49:50;2.90;;;2.70;;
7707;SDS011;3896;48.758;8.888;2022-08-01T08:52:18;4.70;;;3.17;;
7707;SDS011;3896;48.758;8.888;2022-08-01T08:54:45;3.30;;;3.10;;
7707;SDS011;3896;48.758;8.888;2022-08-01T08:57:13;3.40;;;3.10;;
7707;SDS011;3896;48.758;8.888;2022-08-01T08:59:40;3.50;;;3.20;;
7707;SDS011;3896;48.758;8.888;2022-08-01T09:02:08;3.70;;;3.20;;
7707;SDS011;3896;48.758;8.888;2022-08-01T09:04:35;3.13;;;2.93;;
7707;SDS011;3896;48.758;8.888;2022-08-01T09:07:03;3.50;;;3.17;;
7707;SDS011;3896;48.758;8.888;2022-08-01T09:09:30;4.37;;;3.97;;
7707;SDS011;3896;48.758;8.888;2022-08-01T09:11:56;3.67;;;3.37;;
7707;SDS011;3896;48.758;8.888;2022-08-01T09:14:22;3.90;;;3.60;;
7707;SDS011;3896;48.758;8.888;2022-08-01T09:17:00;4.27;;;3.87;;
7707;SDS011;3896;48.758;8.888;2022-08-01T09:19:34;3.73;;;3.43;;
7707;SDS011;3896;48.758;8.888;2022-08-01T09:22:06;3.97;;;3.67;;
7707;SDS011;3896;48.758;8.888;2022-08-01T09:24:36;3.23;;;2.97;;
7707;SDS011;3896;48.758;8.888;2022-08-01T09:27:17;3.77;;;2.80;;
7707;SDS011;3896;48.758;8.888;2022-08-01T09:29:44;3.20;;;3.00;;
7707;SDS011;3896;48.758;8.888;2022-08-01T09:32:10;3.47;;;3.27;;
7707;SDS011;3896;48.758;8.888;2022-08-01T09:34:36;3.37;;;3.13;;
7707;SDS011;3896;48.758;8.888;2022-08-01T09:37:02;4.03;;;2.90;;
7707;SDS011;3896;48.758;8.888;2022-08-01T09:39:37;2.90;;;2.70;;
7707;SDS011;3896;48.758;8.888;2022-08-01T09:42:21;3.70;;;3.17;;
7707;SDS011;3896;48.758;8.888;2022-08-01T09:44:48;5.30;;;3.23;;
7707;SDS011;3896;48.758;8.888;2022-08-01T09:47:14;5.32;;;2.83;;
7707;SDS011;3896;48.758;8.888;2022-08-01T09:49:41;3.05;;;2.78;;
7707;SDS011;3896;48.758;8.888;2022-08-01T09:52:14;3.20;;;3.00;;
7707;SDS011;3896;48.758;8.888;2022-08-01T09:54:51;3.08;;;2.70;;
7707;SDS011;3896;48.758;8.888;2022-08-01T09:57:19;2.78;;;2.60;;
7707;SDS011;3896;48.758;8.888;2022-08-01T09:59:46;2.90;;;2.73;;
7707;SDS011;3896;48.758;8.888;2022-08-01T10:02:26;2.72;;;2.45;;
7707;SDS011;3896;48.758;8.888;2022-08-01T10:04:59;2.67;;;2.47;;
7707;SDS011;3896;48.758;8.888;2022-08-01T10:07:29;2.28;;;2.17;;
7707;SDS011;3896;48.758;8.888;2022-08-01T10:09:54;5.97;;;2.05;;
7707;SDS011;3896;48.758;8.888;2022-08-01T10:12:21;2.53;;;2.33;;
7707;SDS011;3896;48.758;8.888;2022-08-01T10:14:49;2.10;;;1.98;;
7707;SDS011;3896;48.758;8.888;2022-08-01T10:17:15;2.67;;;2.47;;
7707;SDS011;3896;48.758;8.888;2022-08-01T10:19:42;2.65;;;2.30;;
7707;SDS011;3896;48.758;8.888;2022-08-01T10:22:09;4.05;;;2.42;;
7707;SDS011;3896;48.758;8.888;2022-08-01T10:24:39;3.13;;;2.33;;
7707;SDS011;3896;48.758;8.888;2022-08-01T10:27:07;2.15;;;2.05;;
7707;SDS011;3896;48.758;8.888;2022-08-01T10:29:41;2.15;;;2.05;;
7707;SDS011;3896;48.758;8.888;2022-08-01T10:32:19;2.63;;;2.53;;
7707;SDS011;3896;48.758;8.888;2022-08-01T10:34:46;2.38;;;2.10;;
7707;SDS011;3896;48.758;8.888;2022-08-01T10:37:13;2.80;;;1.98;;
7707;SDS011;3896;48.758;8.888;2022-08-01T10:39:40;2.33;;;2.13;;
7707;SDS011;3896;48.758;8.888;2022-08-01T10:42:05;2.28;;;2.17;;
7707;SDS011;3896;48.758;8.888;2022-08-01T10:44:34;2.25;;;2.05;;
7707;SDS011;3896;48.758;8.888;2022-08-01T10:47:03;2.42;;;2.22;;
7707;SDS011;3896;48.758;8.888;2022-08-01T10:58:19;1.88;;;1.77;;
7707;SDS011;3896;48.758;8.888;2022-08-01T11:00:46;1.88;;;1.77;;
7707;SDS011;3896;48.758;8.888;2022-08-01T11:03:11;2.55;;;2.35;;
7707;SDS011;3896;48.758;8.888;2022-08-01T11:05:37;1.90;;;1.80;;
7707;SDS011;3896;48.758;8.888;2022-08-01T11:08:07;2.40;;;2.20;;
7707;SDS011;3896;48.758;8.888;2022-08-01T11:13:05;3.08;;;2.22;;
7707;SDS011;3896;48.758;8.888;2022-08-01T11:15:36;2.10;;;1.90;;
7707;SDS011;3896;48.758;8.888;2022-08-01T11:18:03;2.08;;;1.98;;
7707;SDS011;3896;48.758;8.888;2022-08-01T11:20:58;2.30;;;2.10;;
7707;SDS011;3896;48.758;8.888;2022-08-01T11:23:25;3.30;;;2.35;;
7707;SDS011;3896;48.758;8.888;2022-08-01T11:28:27;2.10;;;2.00;;
7707;SDS011;3896;48.758;8.888;2022-08-01T11:31:40;2.60;;;2.10;;
7707;SDS011;3896;48.758;8.888;2022-08-01T11:38:38;3.10;;;2.28;;
7707;SDS011;3896;48.758;8.888;2022-08-01T11:41:30;2.28;;;2.10;;
7707;SDS011;3896;48.758;8.888;2022-08-01T11:49:24;3.08;;;2.35;;
7707;SDS011;3896;48.758;8.888;2022-08-01T11:54:37;2.35;;;1.80;;
7707;SDS011;3896;48.758;8.888;2022-08-01T11:57:05;1.83;;;1.73;;
7707;SDS011;3896;48.758;8.888;2022-08-01T11:59:40;1.98;;;1.88;;
7707;SDS011;3896;48.758;8.888;2022-08-01T12:02:34;1.92;;;1.83;;
7707;SDS011;3896;48.758;8.888;2022-08-01T12:05:00;1.88;;;1.77;;
7707;SDS011;3896;48.758;8.888;2022-08-01T12:07:28;2.10;;;1.90;;
7707;SDS011;3896;48.758;8.888;2022-08-01T12:12:43;2.03;;;1.67;;
7707;SDS011;3896;48.758;8.888;2022-08-01T12:15:10;4.75;;;1.73;;
7707;SDS011;3896;48.758;8.888;2022-08-01T12:17:37;3.75;;;1.90;;
7707;SDS011;3896;48.758;8.888;2022-08-01T12:20:06;2.03;;;1.80;;
7707;SDS011;3896;48.758;8.888;2022-08-01T12:22:37;2.05;;;1.95;;
7707;SDS011;3896;48.758;8.888;2022-08-01T12:27:35;3.42;;;2.40;;
7707;SDS011;3896;48.758;8.888;2022-08-01T12:30:04;2.78;;;2.20;;
7707;SDS011;3896;48.758;8.888;2022-08-01T12:32:35;3.05;;;2.08;;
7707;SDS011;3896;48.758;8.888;2022-08-01T12:35:04;2.55;;;2.08;;
7707;SDS011;3896;48.758;8.888;2022-08-01T12:37:37;3.28;;;2.53;;
7707;SDS011;3896;48.758;8.888;2022-08-01T12:40:18;2.42;;;2.22;;
7707;SDS011;3896;48.758;8.888;2022-08-01T12:42:44;2.33;;;2.10;;
7707;SDS011;3896;48.758;8.888;2022-08-01T12:45:13;2.47;;;1.83;;
7707;SDS011;3896;48.758;8.888;2022-08-01T12:47:41;2.10;;;1.98;;
7707;SDS011;3896;48.758;8.888;2022-08-01T12:50:08;2.05;;;1.95;;
7707;SDS011;3896;48.758;8.888;2022-08-01T12:52:38;3.08;;;1.90;;
7707;SDS011;3896;48.758;8.888;2022-08-01T12:57:30;2.35;;;2.25;;
7707;SDS011;3896;48.758;8.888;2022-08-01T13:00:13;2.85;;;2.00;;
7707;SDS011;3896;48.758;8.888;2022-08-01T13:02:42;2.20;;;2.00;;
7707;SDS011;3896;48.758;8.888;2022-08-01T13:05:08;2.42;;;1.90;;
7707;SDS011;3896;48.758;8.888;2022-08-01T13:10:09;2.42;;;2.20;;
7707;SDS011;3896;48.758;8.888;2022-08-01T13:12:36;2.28;;;2.17;;
7707;SDS011;3896;48.758;8.888;2022-08-01T13:17:45;3.10;;;2.70;;
7707;SDS011;3896;48.758;8.888;2022-08-01T13:20:21;2.28;;;2.17;;
7707;SDS011;3896;48.758;8.888;2022-08-01T13:22:47;2.75;;;2.40;;
7707;SDS011;3896;48.758;8.888;2022-08-01T13:25:14;2.85;;;2.42;;
7707;SDS011;3896;48.758;8.888;2022-08-01T13:27:40;2.15;;;1.80;;
7707;SDS011;3896;48.758;8.888;2022-08-01T13:30:19;3.42;;;2.53;;
7707;SDS011;3896;48.758;8.888;2022-08-01T13:32:58;2.55;;;2.35;;
7707;SDS011;3896;48.758;8.888;2022-08-01T13:35:24;2.63;;;2.20;;
7707;SDS011;3896;48.758;8.888;2022-08-01T13:37:50;3.40;;;2.30;;
7707;SDS011;3896;48.758;8.888;2022-08-01T13:40:23;3.58;;;2.63;;
7707;SDS011;3896;48.758;8.888;2022-08-01T13:42:50;2.35;;;2.20;;
7707;SDS011;3896;48.758;8.888;2022-08-01T13:45:16;2.90;;;2.70;;
7707;SDS011;3896;48.758;8.888;2022-08-01T13:47:42;2.20;;;1.98;;
7707;SDS011;3896;48.758;8.888;2022-08-01T13:50:09;2.20;;;2.10;;
7707;SDS011;3896;48.758;8.888;2022-08-01T13:52:34;2.20;;;2.00;;
7707;SDS011;3896;48.758;8.888;2022-08-01T13:55:00;3.20;;;2.25;;
7707;SDS011;3896;48.758;8.888;2022-08-01T13:57:26;3.35;;;1.90;;
7707;SDS011;3896;48.758;8.888;2022-08-01T13:59:52;2.70;;;1.90;;
7707;SDS011;3896;48.758;8.888;2022-08-01T14:02:18;2.28;;;1.98;;
7707;SDS011;3896;48.758;8.888;2022-08-01T14:04:44;2.53;;;2.33;;
7707;SDS011;3896;48.758;8.888;2022-08-01T14:07:10;2.13;;;1.60;;
7707;SDS011;3896;48.758;8.888;2022-08-01T14:09:36;1.98;;;1.88;;
7707;SDS011;3896;48.758;8.888;2022-08-01T14:12:01;2.05;;;1.83;;
7707;SDS011;3896;48.758;8.888;2022-08-01T14:14:27;2.03;;;1.90;;
7707;SDS011;3896;48.758;8.888;2022-08-01T14:16:53;2.28;;;2.05;;
7707;SDS011;3896;48.758;8.888;2022-08-01T14:19:19;2.25;;;1.90;;
7707;SDS011;3896;48.758;8.888;2022-08-01T14:21:44;4.45;;;2.00;;
7707;SDS011;3896;48.758;8.888;2022-08-01T14:24:10;2.17;;;1.98;;
7707;SDS011;3896;48.758;8.888;2022-08-01T14:26:35;2.85;;;1.55;;
7707;SDS011;3896;48.758;8.888;2022-08-01T14:29:01;2.63;;;1.90;;
7707;SDS011;3896;48.758;8.888;2022-08-01T14:31:27;5.47;;;1.90;;
7707;SDS011;3896;48.758;8.888;2022-08-01T14:33:54;4.50;;;2.65;;
7707;SDS011;3896;48.758;8.888;2022-08-01T14:36:20;2.40;;;1.70;;
7707;SDS011;3896;48.758;8.888;2022-08-01T14:38:46;2.65;;;2.13;;
7707;SDS011;3896;48.758;8.888;2022-08-01T14:41:11;2.05;;;1.88;;
7707;SDS011;3896;48.758;8.888;2022-08-01T14:43:38;1.70;;;1.58;;
7707;SDS011;3896;48.758;8.888;2022-08-01T14:46:03;4.30;;;1.80;;
7707;SDS011;3896;48.758;8.888;2022-08-01T14:48:29;2.42;;;1.80;;
7707;SDS011;3896;48.758;8.888;2022-08-01T14:50:55;4.03;;;1.67;;
7707;SDS011;3896;48.758;8.888;2022-08-01T14:53:21;1.88;;;1.52;;
7707;SDS011;3896;48.758;8.888;2022-08-01T14:55:46;2.03;;;1.70;;
7707;SDS011;3896;48.758;8.888;2022-08-01T14:58:12;4.32;;;2.17;;
7707;SDS011;3896;48.758;8.888;2022-08-01T15:00:38;2.17;;;1.92;;
7707;SDS011;3896;48.758;8.888;2022-08-01T15:03:03;2.00;;;1.80;;
7707;SDS011;3896;48.758;8.888;2022-08-01T15:05:30;2.28;;;2.05;;
7707;SDS011;3896;48.758;8.888;2022-08-01T15:07:57;2.05;;;1.92;;
7707;SDS011;3896;48.758;8.888;2022-08-01T15:10:23;2.40;;;1.70;;
7707;SDS011;3896;48.758;8.888;2022-08-01T15:12:48;3.25;;;2.05;;
7707;SDS011;3896;48.758;8.888;2022-08-01T15:15:14;2.40;;;1.95;;
7707;SDS011;3896;48.758;8.888;2022-08-01T15:17:40;2.30;;;1.73;;
7707;SDS011;3896;48.758;8.888;2022-08-01T15:20:06;2.45;;;1.85;;
7707;SDS011;3896;48.758;8.888;2022-08-01T15:22:32;1.50;;;1.42;;
7707;SDS011;3896;48.758;8.888;2022-08-01T15:24:58;1.70;;;1.60;;
7707;SDS011;3896;48.758;8.888;2022-08-01T15:27:26;3.47;;;1.75;;
7707;SDS011;3896;48.758;8.888;2022-08-01T15:29:52;1.80;;;1.70;;
7707;SDS011;3896;48.758;8.888;2022-08-01T15:32:19;2.10;;;1.73;;
7707;SDS011;3896;48.758;8.888;2022-08-01T15:34:44;1.80;;;1.70;;
7707;SDS011;3896;48.758;8.888;2022-08-01T15:37:10;1.80;;;1.70;;
7707;SDS011;3896;48.758;8.888;2022-08-01T15:39:37;2.25;;;1.60;;
7707;SDS011;3896;48.758;8.888;2022-08-01T15:42:10;2.08;;;1.50;;
7707;SDS011;3896;48.758;8.888;2022-08-01T15:44:39;2.25;;;1.52;;
7707;SDS011;3896;48.758;8.888;2022-08-01T15:47:06;2.92;;;1.48;;
7707;SDS011;3896;48.758;8.888;2022-08-01T15:49:33;1.40;;;1.40;;
7707;SDS011;3896;48.758;8.888;2022-08-01T15:52:01;1.85;;;1.60;;
7707;SDS011;3896;48.758;8.888;2022-08-01T15:54:27;1.48;;;1.38;;
7707;SDS011;3896;48.758;8.888;2022-08-01T15:56:53;1.88;;;1.45;;
7707;SDS011;3896;48.758;8.888;2022-08-01T15:59:18;1.50;;;1.40;;
7707;SDS011;3896;48.758;8.888;2022-08-01T16:01:44;1.67;;;1.30;;
7707;SDS011;3896;48.758;8.888;2022-08-01T16:04:10;1.42;;;1.33;;
7707;SDS011;3896;48.758;8.888;2022-08-01T16:06:35;1.42;;;1.40;;
7707;SDS011;3896;48.758;8.888;2022-08-01T16:09:02;2.17;;;1.40;;
7707;SDS011;3896;48.758;8.888;2022-08-01T16:11:29;1.23;;;1.17;;
7707;SDS011;3896;48.758;8.888;2022-08-01T16:13:55;1.25;;;1.10;;
7707;SDS011;3896;48.758;8.888;2022-08-01T16:16:21;1.70;;;1.27;;